Time;durP1;ratioP1;P1;durP2;ratioP2;P2;SDS_P1;SDS_P2;PMS_P1;PMS_P2;Temp;Humidity;BMP_temperature;BMP_pressure;BME280_temperature;BME280_humidity;BME280_pressure;Samples;Min_cycle;Max_cycle;Signal;HPM_P1;HPM_P2
2022/08/07 00:00:59;;;;;;;3.70;2.38;;;19.40;99.90;;;;;;5021516;28;20144;-76
2022/08/07 00:03:27;;;;;;;7.13;2.58;;;19.30;99.90;;;;;;5038267;28;20026;-77
2022/08/07 00:05:53;;;;;;;5.18;2.10;;;19.30;99.90;;;;;;5017615;28;20030;-76
2022/08/07 00:08:21;;;;;;;3.03;2.13;;;19.30;99.90;;;;;;5037809;28;20101;-77
2022/08/07 00:10:48;;;;;;;3.65;2.20;;;19.30;99.90;;;;;;5019894;28;20033;-77
2022/08/07 00:13:14;;;;;;;5.15;2.38;;;19.30;99.90;;;;;;5035235;28;20017;-77
2022/08/07 00:15:40;;;;;;;4.43;2.40;;;19.30;99.90;;;;;;5035645;28;20069;-77
2022/08/07 00:18:08;;;;;;;2.67;2.28;;;19.30;99.90;;;;;;5035400;28;20032;-77
2022/08/07 00:20:35;;;;;;;4.07;2.58;;;19.20;99.90;;;;;;5036064;28;20116;-76
2022/08/07 00:23:01;;;;;;;3.55;2.25;;;19.20;99.90;;;;;;5036234;28;20021;-77
2022/08/07 00:25:26;;;;;;;3.92;2.78;;;19.20;99.90;;;;;;5036604;28;20048;-77
2022/08/07 00:27:52;;;;;;;2.72;2.20;;;19.20;99.90;;;;;;5019395;28;20029;-77
2022/08/07 00:30:18;;;;;;;5.68;2.30;;;19.20;99.90;;;;;;5016986;28;20026;-76
2022/08/07 00:32:49;;;;;;;3.05;2.17;;;19.20;99.90;;;;;;5016535;28;20022;-76
2022/08/07 00:35:19;;;;;;;2.47;2.08;;;19.20;99.90;;;;;;5034671;28;20033;-78
2022/08/07 00:37:45;;;;;;;3.15;2.20;;;19.10;99.90;;;;;;5022880;28;20397;-76
2022/08/07 00:40:12;;;;;;;6.63;2.42;;;19.10;99.90;;;;;;5019877;28;20120;-76
2022/08/07 00:42:38;;;;;;;5.05;2.28;;;19.10;99.90;;;;;;5034346;28;20029;-76
2022/08/07 00:45:04;;;;;;;2.83;2.17;;;19.10;99.90;;;;;;5034278;28;20052;-77
2022/08/07 00:47:31;;;;;;;3.00;2.17;;;19.10;99.90;;;;;;5034210;28;20029;-77
2022/08/07 00:49:57;;;;;;;3.10;2.20;;;19.00;99.90;;;;;;5020992;28;20112;-77
2022/08/07 00:52:23;;;;;;;7.40;2.22;;;19.00;99.90;;;;;;5018078;28;20025;-78
2022/08/07 00:54:49;;;;;;;3.10;1.95;;;18.90;99.90;;;;;;5035257;28;20108;-78
2022/08/07 00:57:18;;;;;;;3.78;2.00;;;19.00;99.90;;;;;;5035830;28;20032;-77
2022/08/07 00:59:44;;;;;;;5.13;1.95;;;18.90;99.90;;;;;;5034559;28;20025;-77
2022/08/07 01:02:11;;;;;;;4.63;2.20;;;18.90;99.90;;;;;;5017009;28;20025;-76
2022/08/07 01:04:38;;;;;;;4.47;2.22;;;18.90;99.90;;;;;;5034266;28;20037;-77
2022/08/07 01:07:04;;;;;;;3.80;2.30;;;19.00;99.90;;;;;;5035454;28;20052;-78
2022/08/07 01:09:31;;;;;;;6.10;2.22;;;19.00;99.90;;;;;;5017779;28;20021;-77
2022/08/07 01:11:58;;;;;;;5.13;2.42;;;18.90;99.90;;;;;;5033665;28;20052;-76
2022/08/07 01:14:24;;;;;;;2.50;1.98;;;19.00;99.90;;;;;;4999105;28;20450;-77
2022/08/07 01:16:51;;;;;;;4.45;2.40;;;19.00;99.90;;;;;;5015144;28;20037;-76
2022/08/07 01:19:21;;;;;;;4.80;2.20;;;19.00;99.90;;;;;;5015159;28;20036;-77
2022/08/07 01:21:51;;;;;;;2.65;1.98;;;19.00;99.90;;;;;;5015156;28;20433;-77
2022/08/07 01:24:18;;;;;;;5.35;2.28;;;18.90;99.90;;;;;;5015059;28;20055;-77
2022/08/07 01:26:45;;;;;;;4.30;2.20;;;18.90;99.90;;;;;;5033342;28;20048;-77
2022/08/07 01:29:13;;;;;;;2.97;1.83;;;19.00;99.90;;;;;;4998602;28;20034;-76
2022/08/07 01:31:39;;;;;;;7.35;2.05;;;18.90;99.90;;;;;;5016733;28;20075;-76
2022/08/07 01:34:05;;;;;;;3.75;2.20;;;18.90;99.90;;;;;;5019342;28;20071;-77
2022/08/07 01:36:35;;;;;;;4.32;2.00;;;18.90;99.90;;;;;;5015214;28;20026;-77
2022/08/07 01:39:07;;;;;;;2.33;1.75;;;19.00;99.90;;;;;;5014787;28;20084;-76
2022/08/07 01:41:33;;;;;;;3.03;2.00;;;19.00;99.90;;;;;;4998828;28;20030;-76
2022/08/07 01:44:02;;;;;;;3.50;2.13;;;19.20;99.90;;;;;;5014962;28;20432;-77
2022/08/07 01:46:31;;;;;;;3.75;2.08;;;19.30;99.90;;;;;;5014973;28;20033;-77
2022/08/07 01:48:57;;;;;;;3.35;2.30;;;19.30;99.90;;;;;;4998231;28;20390;-76
2022/08/07 01:51:25;;;;;;;3.65;1.77;;;19.10;99.90;;;;;;5038277;28;20056;-76
2022/08/07 01:53:56;;;;;;;3.45;1.92;;;18.90;99.90;;;;;;5037846;28;20029;-77
2022/08/07 01:56:32;;;;;;;2.22;1.98;;;18.80;99.90;;;;;;5014994;28;20053;-77
2022/08/07 01:59:06;;;;;;;5.47;2.20;;;18.80;99.90;;;;;;5014850;28;20079;-77
2022/08/07 02:01:36;;;;;;;6.93;2.40;;;18.80;99.90;;;;;;5015317;28;20034;-77
2022/08/07 02:04:17;;;;;;;2.70;1.95;;;18.80;99.90;;;;;;5034428;28;20497;-76
2022/08/07 02:06:48;;;;;;;3.38;2.10;;;18.80;99.90;;;;;;5016312;28;20083;-76
2022/08/07 02:09:17;;;;;;;4.53;2.10;;;18.80;99.90;;;;;;5032763;28;20117;-76
2022/08/07 02:11:48;;;;;;;3.13;1.88;;;18.70;99.90;;;;;;5014432;28;20362;-76
2022/08/07 02:14:17;;;;;;;5.30;2.33;;;18.60;99.90;;;;;;5014495;28;20025;-77
2022/08/07 02:16:46;;;;;;;5.90;2.30;;;18.70;99.90;;;;;;5014616;28;20492;-76
2022/08/07 02:19:15;;;;;;;4.30;2.28;;;18.70;99.90;;;;;;5014090;28;20032;-78
2022/08/07 02:21:42;;;;;;;3.10;2.17;;;18.70;99.90;;;;;;4997922;28;20489;-76
2022/08/07 02:24:09;;;;;;;3.30;2.10;;;18.90;99.90;;;;;;5014967;28;20033;-77
2022/08/07 02:26:37;;;;;;;3.95;1.95;;;18.80;99.90;;;;;;5015366;28;20025;-76
2022/08/07 02:29:07;;;;;;;4.32;2.10;;;18.90;99.90;;;;;;5014757;28;20029;-77
2022/08/07 02:31:34;;;;;;;6.97;2.30;;;19.10;99.90;;;;;;5015007;28;20427;-77
2022/08/07 02:34:02;;;;;;;2.95;2.00;;;18.90;99.90;;;;;;5014658;28;20032;-77
2022/08/07 02:36:30;;;;;;;3.30;2.35;;;18.80;99.90;;;;;;5015983;28;20524;-77
2022/08/07 02:38:57;;;;;;;5.13;2.25;;;18.80;99.90;;;;;;5013062;28;20161;-77
2022/08/07 02:41:27;;;;;;;2.13;1.92;;;18.90;99.90;;;;;;5014076;28;20120;-77
2022/08/07 02:43:56;;;;;;;3.28;2.58;;;18.90;99.90;;;;;;5013918;28;20033;-76
2022/08/07 02:46:25;;;;;;;2.30;1.90;;;18.90;99.90;;;;;;5031779;28;20057;-77
2022/08/07 02:48:51;;;;;;;5.15;2.10;;;18.80;99.90;;;;;;5013676;28;20026;-77
2022/08/07 02:51:19;;;;;;;4.07;2.40;;;18.70;99.90;;;;;;5032526;28;20033;-77
2022/08/07 02:53:53;;;;;;;3.53;2.25;;;18.80;99.90;;;;;;4998654;28;20029;-76
2022/08/07 02:56:22;;;;;;;3.58;2.20;;;18.80;99.90;;;;;;5014583;28;20079;-77
2022/08/07 02:58:53;;;;;;;6.28;2.30;;;18.90;99.90;;;;;;4997362;28;20034;-77
2022/08/07 03:01:21;;;;;;;3.55;2.50;;;18.90;99.90;;;;;;5014049;28;20034;-77
2022/08/07 03:03:49;;;;;;;6.43;2.08;;;18.80;99.90;;;;;;5038795;28;20021;-75
2022/08/07 03:06:20;;;;;;;7.95;2.55;;;18.80;99.90;;;;;;5013981;28;20532;-77
2022/08/07 03:08:46;;;;;;;4.72;2.40;;;18.70;99.90;;;;;;5013469;28;20060;-77
2022/08/07 03:11:13;;;;;;;4.07;2.40;;;18.80;99.90;;;;;;5014011;28;20032;-77
2022/08/07 03:13:43;;;;;;;6.68;2.60;;;18.80;99.90;;;;;;5013955;28;20492;-78
2022/08/07 03:16:09;;;;;;;3.30;2.55;;;18.70;99.90;;;;;;5016181;28;20034;-77
2022/08/07 03:18:37;;;;;;;3.35;2.55;;;18.80;99.90;;;;;;5015134;28;20025;-77
2022/08/07 03:21:06;;;;;;;7.78;2.30;;;18.80;99.90;;;;;;5014300;28;20029;-76
2022/08/07 03:23:33;;;;;;;4.05;2.40;;;18.80;99.90;;;;;;5034977;28;20033;-77
2022/08/07 03:26:01;;;;;;;3.20;2.38;;;18.80;99.90;;;;;;5017645;28;20035;-77
2022/08/07 03:28:32;;;;;;;2.15;1.90;;;18.80;99.90;;;;;;5017130;28;20122;-77
2022/08/07 03:31:17;;;;;;;4.85;2.50;;;18.70;99.90;;;;;;5017278;28;20030;-77
2022/08/07 03:33:47;;;;;;;5.53;2.30;;;18.80;99.90;;;;;;5017876;28;20033;-77
2022/08/07 03:36:13;;;;;;;3.08;2.25;;;18.70;99.90;;;;;;5035936;28;20032;-76
2022/08/07 03:38:41;;;;;;;4.68;2.25;;;18.70;99.90;;;;;;5034620;28;20049;-77
2022/08/07 03:41:09;;;;;;;3.85;2.13;;;18.60;99.90;;;;;;5001026;28;20044;-76
2022/08/07 03:43:37;;;;;;;6.68;2.40;;;18.50;99.90;;;;;;5017345;28;20103;-77
2022/08/07 03:46:04;;;;;;;5.45;2.30;;;18.60;99.90;;;;;;5017402;28;20026;-75
2022/08/07 03:48:33;;;;;;;10.82;2.40;;;18.60;99.90;;;;;;5017554;28;20029;-78
2022/08/07 03:51:00;;;;;;;2.42;2.22;;;18.70;99.90;;;;;;5001043;28;20029;-76
2022/08/07 03:53:33;;;;;;;6.47;2.47;;;18.70;99.90;;;;;;5017822;28;20029;-77
2022/08/07 03:56:01;;;;;;;3.63;2.22;;;18.70;99.90;;;;;;5001418;28;20034;-76
2022/08/07 03:58:28;;;;;;;2.50;2.05;;;18.60;99.90;;;;;;5016925;28;20025;-76
2022/08/07 04:00:56;;;;;;;3.53;2.15;;;18.60;99.90;;;;;;5017716;28;20465;-77
2022/08/07 04:03:22;;;;;;;4.78;2.50;;;18.60;99.90;;;;;;5017732;28;20489;-76
2022/08/07 04:05:50;;;;;;;4.88;2.22;;;18.50;99.90;;;;;;5017299;28;20052;-77
2022/08/07 04:08:20;;;;;;;3.58;2.20;;;18.50;99.90;;;;;;5017049;28;20112;-77
2022/08/07 04:10:50;;;;;;;4.18;2.53;;;18.50;99.90;;;;;;5018080;28;20029;-75
2022/08/07 04:13:17;;;;;;;3.65;2.30;;;18.50;99.90;;;;;;5040918;28;20565;-75
2022/08/07 04:15:43;;;;;;;4.43;2.08;;;18.50;99.90;;;;;;5018856;28;20493;-76
2022/08/07 04:18:14;;;;;;;5.47;2.28;;;18.60;99.90;;;;;;5038738;28;20055;-76
2022/08/07 04:20:42;;;;;;;3.33;2.35;;;18.70;99.90;;;;;;5020422;28;20029;-78
2022/08/07 04:23:09;;;;;;;3.53;2.50;;;18.70;99.90;;;;;;5004315;28;20029;-83
2022/08/07 04:25:40;;;;;;;5.53;2.45;;;18.60;99.90;;;;;;5008938;28;20025;-78
2022/08/07 04:28:09;;;;;;;3.40;2.20;;;18.80;99.90;;;;;;5022072;28;20121;-76
2022/08/07 04:30:36;;;;;;;4.95;2.30;;;18.90;99.90;;;;;;5007740;28;20024;-76
2022/08/07 04:33:09;;;;;;;8.63;2.53;;;18.90;99.90;;;;;;5023651;28;20052;-77
2022/08/07 04:35:39;;;;;;;5.43;2.45;;;18.90;99.90;;;;;;5021908;28;20028;-79
2022/08/07 04:38:11;;;;;;;4.38;2.08;;;18.80;99.90;;;;;;5019116;28;20052;-77
2022/08/07 04:40:39;;;;;;;7.13;2.22;;;18.70;99.90;;;;;;5003007;28;20532;-78
2022/08/07 04:43:05;;;;;;;5.72;2.60;;;18.60;99.90;;;;;;5018132;28;20017;-77
2022/08/07 04:46:13;;;;;;;4.05;2.40;;;18.80;99.90;;;;;;5015967;28;20022;-77
2022/08/07 04:49:02;;;;;;;3.22;2.22;;;18.70;99.90;;;;;;5013861;28;20021;-77
2022/08/07 04:51:40;;;;;;;4.15;2.55;;;18.60;99.90;;;;;;5018493;28;20124;-76
2022/08/07 04:54:18;;;;;;;3.65;1.98;;;18.60;99.90;;;;;;5039174;22;20073;-80
2022/08/07 04:56:51;;;;;;;3.35;2.20;;;18.70;99.90;;;;;;5021787;28;20052;-85
2022/08/07 04:59:25;;;;;;;4.95;2.40;;;18.80;99.90;;;;;;5038879;28;20018;-82
2022/08/07 05:02:09;;;;;;;3.05;2.30;;;19.00;99.90;;;;;;5038772;28;20026;-85
2022/08/07 05:04:42;;;;;;;6.47;2.28;;;18.90;99.90;;;;;;5018428;28;20022;-81
2022/08/07 05:07:17;;;;;;;3.15;2.30;;;18.90;99.90;;;;;;5019002;28;20065;-80
2022/08/07 05:10:01;;;;;;;2.90;1.83;;;19.10;99.90;;;;;;5018618;28;20029;-85
2022/08/07 05:12:42;;;;;;;8.35;3.00;;;19.20;99.90;;;;;;5020201;28;20021;-82
2022/08/07 05:15:16;;;;;;;2.83;2.28;;;19.20;99.90;;;;;;5036956;28;20034;-82
2022/08/07 05:17:46;;;;;;;3.42;2.42;;;19.00;99.90;;;;;;5021482;28;20030;-82
2022/08/07 05:20:20;;;;;;;4.88;2.40;;;19.10;99.90;;;;;;5020482;28;20002;-83
2022/08/07 05:22:50;;;;;;;5.40;2.42;;;19.00;99.90;;;;;;5021577;28;20041;-84
2022/08/07 05:25:19;;;;;;;3.85;2.15;;;19.00;99.90;;;;;;5038522;28;20034;-84
2022/08/07 05:27:47;;;;;;;2.85;1.90;;;19.20;99.90;;;;;;5021055;28;20105;-82
2022/08/07 05:30:14;;;;;;;2.95;1.80;;;19.40;99.90;;;;;;5019988;28;20025;-84
2022/08/07 05:32:41;;;;;;;5.90;1.92;;;19.30;99.90;;;;;;5020567;28;20014;-82
2022/08/07 05:35:10;;;;;;;4.72;2.20;;;19.10;99.90;;;;;;5020724;28;20022;-85
2022/08/07 05:37:37;;;;;;;4.68;2.20;;;19.00;99.90;;;;;;5037266;28;20022;-83
2022/08/07 05:40:06;;;;;;;5.45;2.50;;;19.00;99.90;;;;;;5020514;28;20089;-81
2022/08/07 05:42:33;;;;;;;4.82;2.42;;;19.00;99.90;;;;;;5020373;28;20042;-82
2022/08/07 05:45:00;;;;;;;4.32;2.45;;;19.00;99.90;;;;;;5018871;28;20049;-82
2022/08/07 05:47:27;;;;;;;7.40;2.30;;;19.10;99.90;;;;;;5016095;28;20040;-83
2022/08/07 05:49:54;;;;;;;5.45;2.25;;;19.20;99.90;;;;;;5026463;28;20057;-84
2022/08/07 05:52:22;;;;;;;3.85;2.20;;;19.40;99.90;;;;;;5011465;28;20088;-84
2022/08/07 05:54:50;;;;;;;7.93;2.67;;;19.40;99.90;;;;;;5004687;28;20092;-85
2022/08/07 05:57:17;;;;;;;5.15;2.28;;;19.50;99.90;;;;;;5005391;28;20030;-85
2022/08/07 05:59:45;;;;;;;2.83;2.42;;;19.60;99.90;;;;;;5024951;28;20037;-84
2022/08/07 06:02:15;;;;;;;3.67;2.03;;;19.60;99.90;;;;;;5013152;28;20041;-83
2022/08/07 06:04:52;;;;;;;3.30;2.00;;;19.60;99.90;;;;;;5013355;28;20013;-88
2022/08/07 06:07:19;;;;;;;4.45;2.28;;;19.50;99.90;;;;;;5024481;28;20030;-84
2022/08/07 06:09:45;;;;;;;6.88;2.13;;;19.40;99.90;;;;;;5005241;28;20029;-84
2022/08/07 06:12:13;;;;;;;5.80;2.28;;;19.40;99.90;;;;;;5023105;28;20033;-85
2022/08/07 06:14:39;;;;;;;4.93;1.92;;;19.30;99.90;;;;;;5023512;28;20115;-82
2022/08/07 06:17:07;;;;;;;5.63;2.13;;;19.40;99.90;;;;;;5005448;28;20470;-83
2022/08/07 06:19:38;;;;;;;3.63;2.00;;;19.50;99.90;;;;;;4988397;28;20036;-84
2022/08/07 06:22:04;;;;;;;4.13;2.08;;;19.60;99.90;;;;;;5005126;28;20061;-83
2022/08/07 06:24:30;;;;;;;3.80;2.42;;;19.50;99.90;;;;;;5007146;28;20022;-81
2022/08/07 06:26:56;;;;;;;4.15;2.03;;;19.40;99.90;;;;;;5016700;28;20029;-84
2022/08/07 06:29:29;;;;;;;4.53;2.47;;;19.40;99.90;;;;;;5003188;28;20041;-84
2022/08/07 06:31:54;;;;;;;3.10;1.85;;;19.50;99.90;;;;;;4986279;28;20505;-83
2022/08/07 06:34:25;;;;;;;4.15;2.17;;;19.60;99.90;;;;;;4988771;28;20030;-82
2022/08/07 06:36:52;;;;;;;4.43;2.20;;;19.80;99.90;;;;;;4989992;28;20021;-83
2022/08/07 06:39:18;;;;;;;3.35;2.28;;;19.90;99.90;;;;;;5003545;28;20029;-84
2022/08/07 06:41:52;;;;;;;3.13;2.22;;;20.00;99.90;;;;;;5002424;28;20048;-83
2022/08/07 06:44:20;;;;;;;11.93;2.50;;;20.10;99.90;;;;;;5003436;28;20029;-83
2022/08/07 06:46:47;;;;;;;4.60;2.13;;;20.30;99.90;;;;;;5004692;28;20454;-86
2022/08/07 06:49:13;;;;;;;5.05;2.13;;;20.50;99.90;;;;;;5021128;28;20026;-86
2022/08/07 06:51:42;;;;;;;3.88;1.77;;;20.60;99.90;;;;;;5003826;28;20041;-86
2022/08/07 06:54:11;;;;;;;5.40;1.98;;;20.70;99.90;;;;;;5009903;28;20033;-87
2022/08/07 06:56:39;;;;;;;4.68;2.17;;;20.80;99.90;;;;;;5023769;28;20053;-86
2022/08/07 06:59:14;;;;;;;4.72;2.20;;;20.90;99.90;;;;;;5009529;28;20018;-86
2022/08/07 07:01:46;;;;;;;6.28;1.85;;;21.10;99.90;;;;;;5009438;28;20125;-84
2022/08/07 07:04:12;;;;;;;2.80;2.05;;;21.40;99.40;;;;;;5009289;28;20037;-87
2022/08/07 07:06:43;;;;;;;4.00;1.80;;;21.50;99.10;;;;;;5009614;28;20108;-85
2022/08/07 07:09:25;;;;;;;3.08;2.10;;;21.60;99.00;;;;;;5030497;28;20028;-87
2022/08/07 07:12:07;;;;;;;2.35;1.83;;;21.70;99.00;;;;;;5020471;28;20022;-83
2022/08/07 07:14:48;;;;;;;3.92;1.80;;;21.50;98.40;;;;;;5020855;28;20006;-84
2022/08/07 07:17:45;;;;;;;4.55;1.80;;;21.50;98.80;;;;;;5038623;28;20018;-82
2022/08/07 07:20:17;;;;;;;6.95;2.17;;;21.50;98.90;;;;;;5037622;28;20061;-83
2022/08/07 07:22:45;;;;;;;5.63;2.17;;;21.70;98.40;;;;;;5038433;28;20030;-81
2022/08/07 07:25:14;;;;;;;6.18;1.90;;;21.80;98.20;;;;;;5037845;28;20025;-80
2022/08/07 07:27:57;;;;;;;2.78;1.92;;;21.90;98.40;;;;;;5038226;28;20045;-81
2022/08/07 07:30:28;;;;;;;4.10;2.10;;;22.10;97.90;;;;;;5037004;28;20060;-80
2022/08/07 07:32:58;;;;;;;4.13;1.80;;;22.30;97.60;;;;;;5036800;28;20013;-81
2022/08/07 07:35:26;;;;;;;6.30;2.53;;;22.20;97.40;;;;;;5035722;28;20120;-82
2022/08/07 07:37:53;;;;;;;4.90;1.80;;;22.30;97.20;;;;;;5036079;28;20037;-81
2022/08/07 07:40:21;;;;;;;5.20;2.33;;;22.50;97.10;;;;;;5037372;28;20034;-81
2022/08/07 07:42:51;;;;;;;16.85;2.40;;;22.70;97.20;;;;;;5037432;28;20093;-81
2022/08/07 07:45:19;;;;;;;3.20;2.08;;;22.70;96.80;;;;;;5038330;28;20038;-83
2022/08/07 07:47:48;;;;;;;5.30;2.25;;;22.50;96.60;;;;;;5039682;28;20042;-83
2022/08/07 07:50:16;;;;;;;2.78;2.05;;;22.30;97.00;;;;;;5037372;28;20020;-85
2022/08/07 07:52:44;;;;;;;4.88;2.30;;;22.20;97.20;;;;;;5022231;28;20040;-82
2022/08/07 07:55:12;;;;;;;4.72;2.35;;;22.10;97.50;;;;;;5032924;28;20209;-81
2022/08/07 07:57:39;;;;;;;5.60;2.05;;;22.00;97.60;;;;;;5039140;28;20034;-81
2022/08/07 08:00:07;;;;;;;5.55;2.33;;;21.80;97.70;;;;;;5020702;28;20045;-83
2022/08/07 08:02:40;;;;;;;9.40;1.98;;;21.80;98.10;;;;;;5037853;28;20022;-83
2022/08/07 08:05:08;;;;;;;4.22;2.45;;;21.80;98.40;;;;;;5037769;28;20033;-82
2022/08/07 08:07:37;;;;;;;4.13;1.95;;;21.80;97.90;;;;;;5019374;28;20038;-84
2022/08/07 08:10:06;;;;;;;3.90;2.10;;;21.80;98.10;;;;;;5034875;28;20037;-83
2022/08/07 08:12:33;;;;;;;3.70;2.20;;;21.90;98.10;;;;;;5035734;28;20013;-82
2022/08/07 08:15:00;;;;;;;5.32;2.28;;;22.00;97.90;;;;;;5016693;28;20021;-85
2022/08/07 08:17:28;;;;;;;6.85;2.83;;;22.10;97.60;;;;;;5019670;28;20030;-82
2022/08/07 08:20:03;;;;;;;7.28;2.03;;;22.10;97.70;;;;;;5037129;28;20037;-84
2022/08/07 08:28:11;;;;;;;2.88;2.03;;;22.00;97.60;;;;;;5020665;28;20053;-87
2022/08/07 08:30:38;;;;;;;3.10;1.92;;;22.00;97.80;;;;;;5020689;28;20042;-88
2022/08/07 08:33:06;;;;;;;4.57;1.88;;;22.10;97.90;;;;;;5020377;28;20009;-86
2022/08/07 08:35:37;;;;;;;3.47;2.20;;;22.30;97.40;;;;;;5037949;28;20061;-86
2022/08/07 08:38:06;;;;;;;5.20;2.35;;;22.40;97.20;;;;;;5020729;28;20057;-85
2022/08/07 08:40:37;;;;;;;3.63;1.95;;;22.50;97.20;;;;;;5021523;28;20025;-87
2022/08/07 08:43:30;;;;;;;3.13;1.83;;;22.60;97.10;;;;;;5020373;28;20014;-87
2022/08/07 08:46:07;;;;;;;3.08;1.80;;;22.80;96.70;;;;;;5036721;28;20029;-87
2022/08/07 08:48:50;;;;;;;4.30;2.13;;;22.80;96.90;;;;;;5035861;28;20034;-87
2022/08/07 08:51:24;;;;;;;6.55;2.03;;;23.00;96.40;;;;;;5034775;28;20049;-88
2022/08/07 08:54:05;;;;;;;6.95;2.20;;;23.20;96.20;;;;;;4970507;28;1387408;-86
2022/08/07 08:56:43;;;;;;;3.92;2.13;;;23.40;96.20;;;;;;5037638;28;20033;-86
2022/08/07 08:59:34;;;;;;;7.53;2.20;;;23.50;96.00;;;;;;5018755;28;20030;-87
2022/08/07 09:02:29;;;;;;;5.70;2.03;;;23.50;95.70;;;;;;5019485;28;20034;-87
2022/08/07 09:05:19;;;;;;;4.75;2.15;;;23.20;96.10;;;;;;5021619;28;20026;-85
2022/08/07 09:08:18;;;;;;;5.25;1.90;;;23.10;96.10;;;;;;5021312;28;20034;-86
2022/08/07 09:10:56;;;;;;;4.80;1.85;;;23.00;96.00;;;;;;5014047;28;20042;-87
2022/08/07 09:13:40;;;;;;;4.18;2.33;;;23.00;96.20;;;;;;5019916;28;20057;-86
2022/08/07 09:16:15;;;;;;;2.95;2.05;;;22.90;96.30;;;;;;5033791;28;20332;-87
2022/08/07 09:19:18;;;;;;;2.03;1.60;;;23.00;96.30;;;;;;5013627;28;20033;-87
2022/08/07 09:21:51;;;;;;;3.78;1.85;;;23.10;96.50;;;;;;5018410;28;20014;-86
2022/08/07 09:24:33;;;;;;;5.85;2.28;;;23.30;96.10;;;;;;5038051;28;20103;-86
2022/08/07 09:27:28;;;;;;;3.10;2.17;;;23.60;96.00;;;;;;5038153;28;20050;-86
2022/08/07 09:30:16;;;;;;;5.65;2.00;;;23.90;95.70;;;;;;5003391;28;20053;-86
2022/08/07 09:32:57;;;;;;;4.97;1.90;;;24.10;95.10;;;;;;5010752;28;20195;-88
2022/08/07 09:35:55;;;;;;;3.28;1.92;;;24.50;94.60;;;;;;5025624;28;20033;-86
2022/08/07 09:38:28;;;;;;;4.93;2.08;;;24.80;94.20;;;;;;5027917;28;20097;-86
2022/08/07 09:41:22;;;;;;;4.03;1.98;;;25.10;93.70;;;;;;5029129;28;20049;-87
2022/08/07 09:44:40;;;;;;;7.00;1.80;;;25.30;93.70;;;;;;5000701;28;20053;-87
2022/08/07 09:47:38;;;;;;;4.53;1.60;;;25.60;93.20;;;;;;5003050;28;20049;-86
2022/08/07 09:50:34;;;;;;;6.68;2.13;;;25.40;92.90;;;;;;5035362;28;20041;-86
2022/08/07 09:53:03;;;;;;;6.13;2.25;;;25.20;92.80;;;;;;5038057;28;20025;-86
2022/08/07 09:55:47;;;;;;;4.35;2.00;;;25.20;92.80;;;;;;5021064;28;20022;-85
2022/08/07 09:58:41;;;;;;;4.00;2.33;;;25.10;93.00;;;;;;5037391;28;20029;-86
2022/08/07 10:01:38;;;;;;;2.88;2.13;;;24.90;93.40;;;;;;5021030;28;20090;-85
2022/08/07 10:04:13;;;;;;;4.43;1.90;;;25.00;93.40;;;;;;5021074;28;20052;-86
2022/08/07 10:06:57;;;;;;;5.55;2.25;;;25.30;93.10;;;;;;5037466;28;20109;-86
2022/08/07 10:09:35;;;;;;;5.45;2.47;;;25.60;92.60;;;;;;5037484;28;20032;-86
2022/08/07 10:12:40;;;;;;;3.13;2.20;;;26.00;92.40;;;;;;5038166;28;20040;-86
2022/08/07 10:15:17;;;;;;;3.67;1.85;;;27.30;91.10;;;;;;5038037;28;20042;-86
2022/08/07 10:17:55;;;;;;;3.33;1.60;;;28.90;88.70;;;;;;5005069;28;20041;-85
2022/08/07 10:20:55;;;;;;;4.68;2.83;;;30.40;84.20;;;;;;5037548;28;20030;-86
2022/08/07 10:23:46;;;;;;;4.28;2.30;;;30.70;81.00;;;;;;5036518;28;20047;-87
2022/08/07 10:26:33;;;;;;;4.75;2.40;;;30.60;80.30;;;;;;5030292;28;20041;-86
2022/08/07 10:29:11;;;;;;;6.07;2.20;;;32.10;77.60;;;;;;5022683;28;20026;-87
2022/08/07 10:32:08;;;;;;;4.57;2.13;;;33.10;73.80;;;;;;5023578;28;20034;-87
2022/08/07 10:35:05;;;;;;;4.07;2.05;;;33.90;70.70;;;;;;5023635;28;20033;-86
2022/08/07 10:37:52;;;;;;;5.68;1.98;;;33.70;69.70;;;;;;5023403;28;20081;-87
2022/08/07 10:40:35;;;;;;;3.55;1.95;;;32.70;69.70;;;;;;5023156;28;20076;-87
2022/08/07 10:43:05;;;;;;;6.80;2.28;;;30.80;72.40;;;;;;5024849;28;20029;-87
2022/08/07 10:45:41;;;;;;;2.58;1.70;;;29.90;74.10;;;;;;5025402;28;20022;-86
2022/08/07 10:48:10;;;;;;;2.58;1.65;;;29.20;75.30;;;;;;5030043;28;20054;-86
2022/08/07 10:50:46;;;;;;;5.07;2.10;;;29.00;76.00;;;;;;5030518;28;20026;-86
2022/08/07 10:53:42;;;;;;;5.72;1.92;;;28.80;76.30;;;;;;5024929;28;20030;-87
2022/08/07 10:56:42;;;;;;;4.35;1.60;;;28.30;77.20;;;;;;5039571;23;20054;-78
2022/08/07 10:59:34;;;;;;;2.30;1.63;;;28.60;77.20;;;;;;5016200;28;20454;-79
2022/08/07 11:02:18;;;;;;;3.58;1.90;;;28.90;76.80;;;;;;5000210;28;20026;-77
2022/08/07 11:05:07;;;;;;;4.10;1.60;;;29.00;76.50;;;;;;4998728;28;20106;-78
2022/08/07 11:07:58;;;;;;;6.38;2.00;;;29.30;75.80;;;;;;5011551;28;20034;-78
2022/08/07 11:10:38;;;;;;;3.90;1.80;;;30.60;73.90;;;;;;5017091;28;20026;-78
2022/08/07 11:13:06;;;;;;;2.55;1.40;;;30.60;72.90;;;;;;5015531;28;20041;-78
2022/08/07 11:15:38;;;;;;;1.98;1.58;;;30.10;73.50;;;;;;5017669;28;20633;-78
2022/08/07 11:18:29;;;;;;;5.75;1.70;;;29.50;74.00;;;;;;5019199;28;20049;-78
2022/08/07 11:21:11;;;;;;;2.55;1.30;;;29.40;74.30;;;;;;5016269;28;20494;-79
2022/08/07 11:24:04;;;;;;;9.27;1.70;;;29.50;74.20;;;;;;5020148;28;20033;-78
2022/08/07 11:26:52;;;;;;;2.17;1.52;;;30.20;73.10;;;;;;4973079;28;20049;-78
2022/08/07 11:29:37;;;;;;;3.83;1.88;;;30.20;72.60;;;;;;5024495;28;20033;-78
2022/08/07 11:32:28;;;;;;;4.60;1.55;;;30.20;72.30;;;;;;5004313;28;20137;-79
2022/08/07 11:35:01;;;;;;;2.10;1.50;;;29.80;73.00;;;;;;5020505;28;20028;-79
2022/08/07 11:37:33;;;;;;;3.63;1.70;;;29.80;72.70;;;;;;4999291;28;20409;-78
2022/08/07 11:40:23;;;;;;;3.13;1.80;;;29.40;72.90;;;;;;5020168;28;20022;-79
2022/08/07 11:43:07;;;;;;;4.60;1.33;;;29.00;73.50;;;;;;5003347;28;20036;-77
2022/08/07 11:45:47;;;;;;;4.57;2.13;;;28.50;74.10;;;;;;5020444;28;20030;-78
2022/08/07 11:49:08;;;;;;;3.63;1.50;;;28.00;74.90;;;;;;5002266;28;20033;-77
2022/08/07 11:52:04;;;;;;;2.78;1.75;;;27.50;75.90;;;;;;4979320;28;20034;-79
2022/08/07 11:54:49;;;;;;;6.75;1.83;;;26.90;76.80;;;;;;5020461;28;20084;-78
2022/08/07 11:57:41;;;;;;;3.40;1.55;;;26.70;77.20;;;;;;5024493;28;20095;-79
2022/08/07 12:00:09;;;;;;;8.10;1.67;;;26.50;77.10;;;;;;5019427;28;20054;-78
2022/08/07 12:03:09;;;;;;;2.22;1.42;;;26.50;77.70;;;;;;5018725;28;20026;-78
2022/08/07 12:06:07;;;;;;;5.60;1.75;;;26.30;77.90;;;;;;5018138;28;20088;-77
2022/08/07 12:08:39;;;;;;;2.53;1.52;;;26.10;78.70;;;;;;5001787;28;20105;-78
2022/08/07 12:11:33;;;;;;;3.00;1.35;;;25.80;78.90;;;;;;5020602;28;20030;-78
2022/08/07 12:14:15;;;;;;;3.67;1.70;;;26.00;79.10;;;;;;5020829;28;20034;-77
2022/08/07 12:16:57;;;;;;;2.28;1.60;;;26.10;78.80;;;;;;5002881;28;20037;-79
2022/08/07 12:19:44;;;;;;;2.35;1.60;;;26.10;78.70;;;;;;5017871;28;20049;-79
2022/08/07 12:22:46;;;;;;;1.95;1.58;;;26.10;78.80;;;;;;5001410;28;20030;-77
2022/08/07 12:25:52;;;;;;;4.43;1.48;;;26.00;79.00;;;;;;5018568;28;20033;-76
2022/08/07 12:28:36;;;;;;;4.32;1.50;;;26.10;78.40;;;;;;5001419;28;20026;-78
2022/08/07 12:31:10;;;;;;;5.60;1.60;;;26.10;77.90;;;;;;5000189;28;20056;-77
2022/08/07 12:33:37;;;;;;;2.53;1.48;;;26.20;78.80;;;;;;5018056;28;20030;-77
2022/08/07 12:36:04;;;;;;;2.75;1.58;;;26.10;79.00;;;;;;5022573;28;20069;-79
2022/08/07 12:38:30;;;;;;;6.95;1.67;;;26.00;79.40;;;;;;5003376;28;20033;-78
2022/08/07 12:40:59;;;;;;;3.28;1.77;;;25.90;79.50;;;;;;5021882;28;20032;-77
2022/08/07 12:43:31;;;;;;;4.45;1.80;;;25.80;79.70;;;;;;5002626;28;20032;-77
2022/08/07 12:46:27;;;;;;;4.15;1.95;;;25.70;79.80;;;;;;5017354;28;20018;-77
2022/08/07 12:49:40;;;;;;;5.97;2.00;;;25.80;79.80;;;;;;5018297;28;20156;-78
2022/08/07 12:52:09;;;;;;;4.13;1.80;;;25.70;80.10;;;;;;5024088;28;20170;-78
2022/08/07 12:54:42;;;;;;;2.55;2.03;;;25.60;80.30;;;;;;5028213;28;20026;-79
2022/08/07 12:57:09;;;;;;;3.65;2.22;;;25.50;81.00;;;;;;5030044;28;20068;-77
2022/08/07 12:59:37;;;;;;;5.13;2.00;;;25.50;80.40;;;;;;5000820;28;20478;-78
2022/08/07 13:02:11;;;;;;;4.80;1.77;;;25.70;80.10;;;;;;5005860;28;20057;-77
2022/08/07 13:04:55;;;;;;;;;;;25.80;79.70;;;;;;5028072;28;20041;-77
2022/08/07 13:07:45;;;;;;;2.10;1.77;;;25.90;80.40;;;;;;5026117;28;19913;-78
2022/08/07 13:10:40;;;;;;;5.95;1.98;;;25.90;79.80;;;;;;5008328;28;20030;-78
2022/08/07 13:13:15;;;;;;;3.73;1.70;;;26.20;79.00;;;;;;5022942;28;20529;-78
2022/08/07 13:15:59;;;;;;;4.35;1.70;;;26.80;78.20;;;;;;5021701;28;20296;-78
2022/08/07 13:19:04;;;;;;;3.97;1.80;;;28.20;76.20;;;;;;5003382;28;20611;-79
2022/08/07 13:21:33;;;;;;;10.50;1.80;;;28.90;74.60;;;;;;5002685;28;20030;-78
2022/08/07 13:24:21;;;;;;;4.00;1.80;;;29.40;73.30;;;;;;5020749;28;20538;-79
2022/08/07 13:27:19;;;;;;;2.70;1.60;;;30.40;71.70;;;;;;5019484;28;20065;-78
2022/08/07 13:30:17;;;;;;;3.05;1.60;;;30.40;71.10;;;;;;5023399;28;20046;-77
2022/08/07 13:33:05;;;;;;;5.32;2.00;;;30.30;70.80;;;;;;5006622;28;20053;-78